Time;durP1;ratioP1;P1;durP2;ratioP2;P2;SDS_P1;SDS_P2;PMS_P1;PMS_P2;Temp;Humidity;BMP_temperature;BMP_pressure;BME280_temperature;BME280_humidity;BME280_pressure;Samples;Min_cycle;Max_cycle;Signal;HPM_P1;HPM_P2
2021/07/05 00:00:14;;;;;;;4.05;2.67;;;;;;;;;;4403987;32;20281;-55
2021/07/05 00:02:40;;;;;;;5.55;3.20;;;;;;;;;;4403770;32;20213;-54
2021/07/05 00:05:07;;;;;;;3.20;2.72;;;;;;;;;;4402543;32;20587;-55
2021/07/05 00:07:33;;;;;;;4.28;3.10;;;;;;;;;;4403536;32;20518;-55
2021/07/05 00:09:58;;;;;;;8.90;3.50;;;;;;;;;;4404026;32;20282;-55
2021/07/05 00:12:24;;;;;;;5.80;3.20;;;;;;;;;;4403311;32;20264;-55
2021/07/05 00:14:49;;;;;;;6.80;2.60;;;;;;;;;;4403380;32;20621;-55
2021/07/05 00:17:15;;;;;;;4.97;3.42;;;;;;;;;;4390924;32;20334;-56
2021/07/05 00:19:40;;;;;;;7.40;3.72;;;;;;;;;;4388504;32;20287;-55
2021/07/05 00:22:07;;;;;;;11.10;3.55;;;;;;;;;;4387161;32;20330;-55
2021/07/05 00:24:32;;;;;;;5.45;3.28;;;;;;;;;;4388336;32;20244;-55
2021/07/05 00:26:58;;;;;;;8.15;3.42;;;;;;;;;;4402420;32;20311;-55
2021/07/05 00:29:23;;;;;;;7.30;3.58;;;;;;;;;;4403615;32;20217;-55
2021/07/05 00:31:49;;;;;;;6.03;4.32;;;;;;;;;;4403807;32;20272;-56
2021/07/05 00:34:15;;;;;;;5.43;3.58;;;;;;;;;;4403793;32;20225;-55
2021/07/05 00:36:40;;;;;;;5.87;3.90;;;;;;;;;;4403668;32;20288;-54
2021/07/05 00:39:06;;;;;;;12.27;4.37;;;;;;;;;;4403648;32;20221;-54
2021/07/05 00:41:32;;;;;;;6.15;4.07;;;;;;;;;;4402856;32;20360;-56
2021/07/05 00:43:57;;;;;;;6.00;3.65;;;;;;;;;;4402313;32;20365;-53
2021/07/05 00:46:25;;;;;;;4.80;3.53;;;;;;;;;;4403145;32;20311;-55
2021/07/05 00:48:50;;;;;;;7.22;4.47;;;;;;;;;;4403486;32;20283;-54
2021/07/05 00:51:16;;;;;;;8.82;4.30;;;;;;;;;;4403593;32;20306;-55
2021/07/05 00:53:43;;;;;;;7.45;4.62;;;;;;;;;;4403196;32;20339;-54
2021/07/05 00:56:09;;;;;;;8.40;4.45;;;;;;;;;;4403069;32;20224;-54
2021/07/05 00:58:35;;;;;;;7.55;4.20;;;;;;;;;;4403121;32;20591;-54
2021/07/05 01:01:00;;;;;;;6.00;4.00;;;;;;;;;;4403383;32;20700;-54
2021/07/05 01:03:26;;;;;;;4.80;3.65;;;;;;;;;;4402376;32;20243;-54
2021/07/05 01:05:51;;;;;;;7.03;3.92;;;;;;;;;;4403040;32;20240;-55
2021/07/05 01:08:17;;;;;;;5.32;3.60;;;;;;;;;;4403137;32;20257;-55
2021/07/05 01:10:42;;;;;;;6.90;3.70;;;;;;;;;;4403085;32;20276;-55
2021/07/05 01:13:08;;;;;;;5.07;3.28;;;;;;;;;;4397564;32;20269;-54
2021/07/05 01:15:33;;;;;;;5.18;3.58;;;;;;;;;;4400474;32;20299;-54
2021/07/05 01:18:01;;;;;;;6.15;3.62;;;;;;;;;;4403450;32;20201;-55
2021/07/05 01:20:29;;;;;;;6.78;3.70;;;;;;;;;;4403296;32;20201;-54
2021/07/05 01:22:55;;;;;;;7.43;4.60;;;;;;;;;;4402512;32;20634;-54
2021/07/05 01:25:24;;;;;;;10.48;3.78;;;;;;;;;;4403054;32;20328;-55
2021/07/05 01:27:50;;;;;;;11.45;5.45;;;;;;;;;;4403125;32;20263;-54
2021/07/05 01:30:18;;;;;;;10.05;6.55;;;;;;;;;;4402958;32;20272;-55
2021/07/05 01:32:50;;;;;;;14.52;4.90;;;;;;;;;;4388867;32;20320;-55
2021/07/05 01:35:16;;;;;;;9.98;4.47;;;;;;;;;;4386724;32;20287;-54
2021/07/05 01:37:43;;;;;;;8.73;3.72;;;;;;;;;;4387342;32;20206;-54
2021/07/05 01:40:15;;;;;;;8.05;4.40;;;;;;;;;;4388032;32;20341;-54
2021/07/05 01:42:41;;;;;;;15.27;5.72;;;;;;;;;;4387462;32;20221;-54
2021/07/05 01:45:07;;;;;;;7.45;4.55;;;;;;;;;;4386897;32;20283;-54
2021/07/05 01:47:33;;;;;;;12.43;5.43;;;;;;;;;;4387800;32;20206;-54
2021/07/05 01:49:58;;;;;;;6.65;4.53;;;;;;;;;;4387876;32;20245;-54
2021/07/05 01:52:24;;;;;;;12.37;5.37;;;;;;;;;;4388074;32;20551;-55
2021/07/05 01:54:49;;;;;;;9.43;5.20;;;;;;;;;;4390709;32;20614;-54
2021/07/05 01:57:27;;;;;;;8.52;4.78;;;;;;;;;;4390774;32;20330;-55
2021/07/05 01:59:58;;;;;;;13.95;5.85;;;;;;;;;;4377925;32;20259;-54
2021/07/05 02:02:25;;;;;;;7.78;4.93;;;;;;;;;;4393001;32;20271;-54
2021/07/05 02:04:51;;;;;;;13.73;5.82;;;;;;;;;;4405599;32;20265;-54
2021/07/05 02:07:17;;;;;;;9.95;6.10;;;;;;;;;;4405654;32;20367;-54
2021/07/05 02:09:42;;;;;;;9.23;5.43;;;;;;;;;;4405535;32;20278;-54
2021/07/05 02:12:09;;;;;;;14.07;6.22;;;;;;;;;;4405479;32;20364;-56
2021/07/05 02:14:35;;;;;;;10.60;6.40;;;;;;;;;;4404697;32;20226;-53
2021/07/05 02:17:00;;;;;;;17.33;5.57;;;;;;;;;;4393943;32;20711;-55
2021/07/05 02:19:26;;;;;;;9.98;5.55;;;;;;;;;;4404086;32;20213;-54
2021/07/05 02:21:51;;;;;;;6.45;4.50;;;;;;;;;;4405567;32;20275;-54
2021/07/05 02:24:17;;;;;;;10.10;5.12;;;;;;;;;;4405344;32;20296;-54
2021/07/05 02:26:43;;;;;;;9.25;5.35;;;;;;;;;;4403896;32;20281;-55
2021/07/05 02:29:10;;;;;;;8.25;5.00;;;;;;;;;;4405442;32;20233;-55
2021/07/05 02:31:36;;;;;;;12.77;5.60;;;;;;;;;;4398055;32;20210;-54
2021/07/05 02:34:03;;;;;;;7.00;5.28;;;;;;;;;;4390268;32;20253;-55
2021/07/05 02:36:28;;;;;;;8.35;5.05;;;;;;;;;;4390178;32;20641;-55
2021/07/05 02:38:54;;;;;;;10.63;5.18;;;;;;;;;;4390328;32;20332;-54
2021/07/05 02:41:19;;;;;;;5.97;4.40;;;;;;;;;;4390183;32;20264;-55
2021/07/05 02:43:45;;;;;;;11.32;4.72;;;;;;;;;;4390040;32;20234;-55
2021/07/05 02:46:11;;;;;;;10.98;5.35;;;;;;;;;;4390121;32;20261;-57
2021/07/05 02:48:38;;;;;;;7.55;4.30;;;;;;;;;;4389836;32;20264;-54
2021/07/05 02:51:06;;;;;;;11.18;4.72;;;;;;;;;;4388537;32;20264;-54
2021/07/05 02:53:31;;;;;;;7.90;4.90;;;;;;;;;;4388223;32;20265;-54
2021/07/05 02:55:57;;;;;;;6.47;4.53;;;;;;;;;;4376062;32;20323;-54
2021/07/05 02:58:24;;;;;;;5.87;3.92;;;;;;;;;;4389637;32;20259;-54
2021/07/05 03:00:53;;;;;;;4.57;3.47;;;;;;;;;;4390053;32;20251;-55
2021/07/05 03:03:19;;;;;;;6.78;4.60;;;;;;;;;;4398327;32;20234;-54
2021/07/05 03:05:44;;;;;;;5.97;5.30;;;;;;;;;;4404141;32;20549;-54
2021/07/05 03:08:10;;;;;;;6.93;5.10;;;;;;;;;;4403559;32;20396;-54
2021/07/05 03:10:38;;;;;;;4.82;4.32;;;;;;;;;;4404535;32;20344;-54
2021/07/05 03:13:06;;;;;;;5.10;4.22;;;;;;;;;;4404679;32;20285;-54
2021/07/05 03:15:32;;;;;;;4.62;3.72;;;;;;;;;;4403922;32;20217;-55
2021/07/05 03:17:58;;;;;;;6.43;3.97;;;;;;;;;;4404680;32;20349;-53
2021/07/05 03:20:27;;;;;;;4.07;3.05;;;;;;;;;;4404474;32;20279;-55
2021/07/05 03:22:54;;;;;;;5.07;3.15;;;;;;;;;;4402942;32;20229;-55
2021/07/05 03:25:22;;;;;;;5.40;3.35;;;;;;;;;;4404244;32;20198;-55
2021/07/05 03:27:49;;;;;;;4.05;3.33;;;;;;;;;;4404281;32;20543;-56
2021/07/05 03:30:16;;;;;;;4.90;3.03;;;;;;;;;;4404187;32;20237;-55
2021/07/05 03:32:42;;;;;;;7.35;3.78;;;;;;;;;;4389648;32;20746;-54
2021/07/05 03:35:09;;;;;;;10.25;3.50;;;;;;;;;;4389681;32;20249;-54
2021/07/05 03:37:35;;;;;;;6.20;3.90;;;;;;;;;;4388803;32;20599;-54
2021/07/05 03:40:04;;;;;;;4.05;3.05;;;;;;;;;;4389486;32;20237;-54
2021/07/05 03:42:29;;;;;;;5.62;4.07;;;;;;;;;;4388660;32;20214;-54
2021/07/05 03:44:54;;;;;;;4.05;3.55;;;;;;;;;;4389348;32;20221;-54
2021/07/05 03:47:20;;;;;;;5.70;4.22;;;;;;;;;;4389003;32;20265;-54
2021/07/05 03:49:45;;;;;;;3.95;3.05;;;;;;;;;;4388971;32;20715;-53
2021/07/05 03:52:11;;;;;;;5.75;4.18;;;;;;;;;;4389584;32;20629;-55
2021/07/05 03:54:36;;;;;;;5.10;3.33;;;;;;;;;;4388099;32;20245;-54
2021/07/05 03:57:03;;;;;;;4.32;3.12;;;;;;;;;;4389315;32;20306;-55
2021/07/05 03:59:30;;;;;;;8.25;4.50;;;;;;;;;;4388844;32;20263;-55
2021/07/05 04:01:55;;;;;;;6.28;3.95;;;;;;;;;;4390043;32;20254;-55
2021/07/05 04:04:20;;;;;;;6.68;4.35;;;;;;;;;;4403567;32;20677;-55
2021/07/05 04:06:46;;;;;;;6.20;4.10;;;;;;;;;;4404236;32;20201;-55
2021/07/05 04:09:11;;;;;;;5.62;3.17;;;;;;;;;;4404019;32;20239;-56
2021/07/05 04:11:37;;;;;;;3.53;2.95;;;;;;;;;;4403506;32;20760;-55
2021/07/05 04:14:03;;;;;;;7.12;3.75;;;;;;;;;;4401466;32;20278;-54
2021/07/05 04:16:28;;;;;;;4.20;3.60;;;;;;;;;;4395584;32;20302;-54
2021/07/05 04:18:53;;;;;;;3.20;2.90;;;;;;;;;;4399404;32;20221;-54
2021/07/05 04:21:21;;;;;;;4.40;3.33;;;;;;;;;;4403810;32;20280;-54
2021/07/05 04:23:47;;;;;;;4.87;3.37;;;;;;;;;;4403635;32;20559;-55
2021/07/05 04:26:13;;;;;;;6.22;3.87;;;;;;;;;;4403615;32;20194;-54
2021/07/05 04:28:39;;;;;;;3.42;3.12;;;;;;;;;;4403661;32;20243;-53
2021/07/05 04:31:04;;;;;;;4.28;3.45;;;;;;;;;;4400097;32;20307;-54
2021/07/05 04:33:30;;;;;;;9.38;3.92;;;;;;;;;;4388160;32;20702;-54
2021/07/05 04:35:55;;;;;;;8.43;3.53;;;;;;;;;;4388280;32;20299;-53
2021/07/05 04:38:21;;;;;;;5.35;4.10;;;;;;;;;;4387934;32;20566;-53
2021/07/05 04:40:48;;;;;;;4.85;3.47;;;;;;;;;;4388317;32;20689;-55
2021/07/05 04:43:14;;;;;;;7.15;4.20;;;;;;;;;;4388119;32;20218;-55
2021/07/05 04:45:42;;;;;;;4.47;3.25;;;;;;;;;;4388132;32;20299;-55
2021/07/05 04:48:07;;;;;;;5.28;3.90;;;;;;;;;;4387942;32;20205;-54
2021/07/05 04:50:33;;;;;;;5.12;3.45;;;;;;;;;;4386767;32;20366;-55
2021/07/05 04:52:59;;;;;;;5.95;3.65;;;;;;;;;;4388038;32;20202;-54
2021/07/05 04:55:26;;;;;;;8.93;4.20;;;;;;;;;;4388179;32;20326;-54
2021/07/05 04:57:53;;;;;;;3.90;3.20;;;;;;;;;;4386639;32;20252;-53
2021/07/05 05:00:25;;;;;;;6.15;4.12;;;;;;;;;;4387594;32;20209;-54
2021/07/05 05:02:51;;;;;;;12.98;4.97;;;;;;;;;;4395602;32;20206;-54
2021/07/05 05:05:17;;;;;;;5.45;3.25;;;;;;;;;;4402508;32;20297;-54
2021/07/05 05:07:42;;;;;;;6.37;3.30;;;;;;;;;;4402376;32;20315;-54
2021/07/05 05:10:10;;;;;;;7.95;3.60;;;;;;;;;;4401261;32;20305;-54
2021/07/05 05:12:37;;;;;;;4.72;3.85;;;;;;;;;;4387263;32;20574;-54
2021/07/05 05:15:04;;;;;;;5.57;4.07;;;;;;;;;;4399564;32;20216;-55
2021/07/05 05:17:29;;;;;;;4.68;3.42;;;;;;;;;;4402328;32;20298;-55
2021/07/05 05:19:55;;;;;;;3.90;3.08;;;;;;;;;;4402915;32;20233;-54
2021/07/05 05:22:20;;;;;;;4.18;3.78;;;;;;;;;;4402626;32;20308;-54
2021/07/05 05:24:46;;;;;;;5.85;4.30;;;;;;;;;;4402202;32;20622;-54
2021/07/05 05:27:11;;;;;;;4.95;3.90;;;;;;;;;;4402521;32;20314;-54
2021/07/05 05:29:38;;;;;;;5.12;3.92;;;;;;;;;;4401303;32;20622;-54
2021/07/05 05:32:04;;;;;;;25.33;8.25;;;;;;;;;;4399587;32;20324;-55
2021/07/05 05:34:30;;;;;;;10.10;5.03;;;;;;;;;;4399994;32;20229;-54
2021/07/05 05:36:55;;;;;;;11.95;5.45;;;;;;;;;;4400683;32;20645;-55
2021/07/05 05:39:21;;;;;;;6.57;4.43;;;;;;;;;;4400496;32;20695;-54
2021/07/05 05:41:46;;;;;;;8.73;4.50;;;;;;;;;;4400664;32;20761;-54
2021/07/05 05:44:12;;;;;;;12.60;5.22;;;;;;;;;;4400709;32;20604;-54
2021/07/05 05:46:37;;;;;;;7.97;5.97;;;;;;;;;;4401725;32;20315;-54
2021/07/05 05:49:03;;;;;;;15.50;6.07;;;;;;;;;;4402672;32;20233;-55
2021/07/05 05:51:34;;;;;;;6.37;5.18;;;;;;;;;;4402691;32;20772;-57
2021/07/05 05:54:00;;;;;;;10.10;5.30;;;;;;;;;;4402787;32;20252;-55
2021/07/05 05:56:27;;;;;;;15.73;6.55;;;;;;;;;;4402347;32;20260;-56
2021/07/05 05:58:55;;;;;;;9.57;4.50;;;;;;;;;;4402575;32;20290;-54
2021/07/05 06:01:21;;;;;;;8.57;5.70;;;;;;;;;;4401967;32;20247;-55
2021/07/05 06:03:46;;;;;;;5.15;4.37;;;;;;;;;;4401663;32;20225;-54
2021/07/05 06:06:12;;;;;;;6.30;3.95;;;;;;;;;;4402686;32;20286;-54
2021/07/05 06:08:37;;;;;;;7.18;3.92;;;;;;;;;;4402489;32;20323;-54
2021/07/05 06:11:03;;;;;;;5.15;4.15;;;;;;;;;;4400106;32;20306;-54
2021/07/05 06:13:28;;;;;;;10.63;4.70;;;;;;;;;;4402219;32;20209;-54
2021/07/05 06:15:54;;;;;;;6.78;5.37;;;;;;;;;;4402591;32;20268;-54
2021/07/05 06:18:19;;;;;;;7.82;4.85;;;;;;;;;;4402793;32;20256;-54
2021/07/05 06:20:45;;;;;;;7.12;3.87;;;;;;;;;;4402921;32;20277;-53
2021/07/05 06:23:19;;;;;;;3.95;3.55;;;;;;;;;;4402798;32;20347;-54
2021/07/05 06:25:46;;;;;;;7.00;4.12;;;;;;;;;;4402834;32;20181;-55
2021/07/05 06:28:12;;;;;;;7.93;4.20;;;;;;;;;;4402680;32;20262;-56
2021/07/05 06:30:38;;;;;;;6.65;4.65;;;;;;;;;;4402320;32;20854;-56
2021/07/05 06:33:03;;;;;;;6.93;4.55;;;;;;;;;;4402026;32;20413;-54
2021/07/05 06:35:29;;;;;;;5.25;3.92;;;;;;;;;;4401568;32;20296;-55
2021/07/05 06:37:54;;;;;;;6.70;4.90;;;;;;;;;;4402363;32;20202;-54
2021/07/05 06:40:20;;;;;;;7.82;4.55;;;;;;;;;;4404040;32;20277;-54
2021/07/05 06:42:45;;;;;;;6.62;4.65;;;;;;;;;;4403647;32;20243;-54
2021/07/05 06:45:11;;;;;;;8.05;4.55;;;;;;;;;;4405152;32;20624;-54
2021/07/05 06:47:37;;;;;;;8.65;4.75;;;;;;;;;;4404876;32;20276;-54
2021/07/05 06:50:04;;;;;;;5.43;4.87;;;;;;;;;;4405056;32;20209;-54
2021/07/05 06:52:33;;;;;;;6.47;5.03;;;;;;;;;;4405364;32;20271;-54
2021/07/05 06:54:59;;;;;;;8.88;5.50;;;;;;;;;;4404572;32;20329;-54
2021/07/05 06:57:33;;;;;;;7.40;4.97;;;;;;;;;;4404770;32;20267;-54
2021/07/05 07:00:04;;;;;;;7.50;4.80;;;;;;;;;;4401846;32;20296;-54
2021/07/05 07:02:29;;;;;;;7.87;5.12;;;;;;;;;;4404740;32;20626;-54
2021/07/05 07:04:55;;;;;;;9.77;5.53;;;;;;;;;;4404322;32;20287;-54
2021/07/05 07:07:21;;;;;;;5.55;4.20;;;;;;;;;;4403511;32;20304;-53
2021/07/05 07:09:46;;;;;;;8.13;4.65;;;;;;;;;;4404233;32;20601;-55
2021/07/05 07:12:12;;;;;;;8.00;4.85;;;;;;;;;;4405307;32;20261;-54
2021/07/05 07:14:37;;;;;;;5.00;4.37;;;;;;;;;;4403824;32;20296;-55
2021/07/05 07:17:06;;;;;;;7.43;5.47;;;;;;;;;;4403406;32;20292;-56
2021/07/05 07:19:32;;;;;;;5.87;5.10;;;;;;;;;;4401259;32;20396;-56
2021/07/05 07:22:02;;;;;;;15.25;4.50;;;;;;;;;;4403601;32;20328;-54
2021/07/05 07:24:28;;;;;;;10.07;4.97;;;;;;;;;;4402764;32;20360;-54
2021/07/05 07:26:53;;;;;;;11.80;6.00;;;;;;;;;;4403227;32;20645;-57
2021/07/05 07:29:19;;;;;;;10.10;5.30;;;;;;;;;;4404392;32;20214;-55
2021/07/05 07:31:44;;;;;;;7.85;4.85;;;;;;;;;;4395276;32;20685;-55
2021/07/05 07:34:10;;;;;;;7.95;5.03;;;;;;;;;;4397873;32;20330;-54
2021/07/05 07:36:35;;;;;;;8.43;5.25;;;;;;;;;;4403875;32;20265;-54
2021/07/05 07:39:05;;;;;;;7.45;4.82;;;;;;;;;;4404014;32;20252;-55
2021/07/05 07:41:33;;;;;;;4.62;4.05;;;;;;;;;;4404270;32;20201;-55
2021/07/05 07:43:59;;;;;;;9.38;6.00;;;;;;;;;;4403422;32;20233;-54
2021/07/05 07:46:25;;;;;;;6.10;4.30;;;;;;;;;;4403935;32;20265;-53
2021/07/05 07:48:51;;;;;;;5.57;3.70;;;;;;;;;;4403136;32;20332;-54
2021/07/05 07:51:16;;;;;;;5.70;4.70;;;;;;;;;;4404073;32;20260;-55
2021/07/05 07:53:42;;;;;;;7.68;4.50;;;;;;;;;;4403847;32;20303;-54
2021/07/05 07:56:07;;;;;;;5.72;4.07;;;;;;;;;;4403201;32;20343;-57
2021/07/05 07:58:33;;;;;;;4.68;3.42;;;;;;;;;;4404026;32;20209;-54
2021/07/05 08:00:58;;;;;;;5.78;3.78;;;;;;;;;;4404444;32;20256;-53
2021/07/05 08:03:24;;;;;;;4.97;4.05;;;;;;;;;;4396776;32;20382;-55
2021/07/05 08:05:50;;;;;;;4.25;3.42;;;;;;;;;;4388855;32;20279;-55
2021/07/05 08:08:16;;;;;;;5.18;3.20;;;;;;;;;;4389086;32;20592;-54
2021/07/05 08:10:43;;;;;;;5.00;3.15;;;;;;;;;;4388608;32;20333;-55
2021/07/05 08:13:09;;;;;;;6.37;3.87;;;;;;;;;;4389116;32;20602;-55
2021/07/05 08:15:34;;;;;;;3.95;3.33;;;;;;;;;;4400898;32;20285;-56
2021/07/05 08:18:00;;;;;;;4.70;3.50;;;;;;;;;;4388622;32;20194;-55
2021/07/05 08:20:25;;;;;;;4.37;3.97;;;;;;;;;;4388633;32;20655;-55
2021/07/05 08:22:53;;;;;;;4.62;3.47;;;;;;;;;;4388444;32;20194;-55
2021/07/05 08:25:21;;;;;;;3.03;2.70;;;;;;;;;;4388039;32;20228;-54
2021/07/05 08:27:46;;;;;;;4.05;3.25;;;;;;;;;;4388061;32;20271;-55
2021/07/05 08:30:12;;;;;;;12.75;3.65;;;;;;;;;;4387822;32;20280;-54
2021/07/05 08:32:38;;;;;;;5.25;3.85;;;;;;;;;;4400995;32;20292;-55
2021/07/05 08:35:06;;;;;;;3.78;3.45;;;;;;;;;;4402928;32;20222;-55
2021/07/05 08:37:31;;;;;;;4.75;3.53;;;;;;;;;;4403162;32;20218;-54
2021/07/05 08:39:57;;;;;;;4.15;3.17;;;;;;;;;;4403356;32;20607;-55
2021/07/05 08:42:24;;;;;;;7.20;3.55;;;;;;;;;;4401977;32;20685;-54
2021/07/05 08:44:50;;;;;;;4.72;4.12;;;;;;;;;;4403076;32;20744;-55
2021/07/05 08:47:17;;;;;;;6.00;3.50;;;;;;;;;;4403085;32;20276;-55
2021/07/05 08:49:45;;;;;;;4.90;3.35;;;;;;;;;;4401899;32;20551;-55
2021/07/05 08:52:11;;;;;;;8.75;3.55;;;;;;;;;;4402764;32;20722;-56
2021/07/05 08:54:36;;;;;;;7.87;3.75;;;;;;;;;;4402546;32;20365;-56
2021/07/05 08:57:03;;;;;;;4.75;3.70;;;;;;;;;;4401692;32;20446;-55
2021/07/05 08:59:31;;;;;;;4.95;3.42;;;;;;;;;;4402838;32;20225;-55
2021/07/05 09:01:56;;;;;;;5.12;3.70;;;;;;;;;;4402642;32;20206;-56
2021/07/05 09:04:22;;;;;;;9.10;3.95;;;;;;;;;;4402472;32;20295;-54
2021/07/05 09:07:06;;;;;;;4.82;3.60;;;;;;;;;;4402820;32;20335;-54
2021/07/05 09:09:32;;;;;;;6.10;4.00;;;;;;;;;;4402189;32;20624;-55
2021/07/05 09:12:03;;;;;;;5.87;3.87;;;;;;;;;;4402779;32;20264;-55
2021/07/05 09:14:29;;;;;;;5.32;3.62;;;;;;;;;;4401903;32;20360;-54
2021/07/05 09:16:54;;;;;;;4.78;3.62;;;;;;;;;;4402576;32;20338;-55
2021/07/05 09:19:29;;;;;;;6.93;4.32;;;;;;;;;;4402906;32;20213;-55
2021/07/05 09:22:00;;;;;;;6.28;4.10;;;;;;;;;;4403090;32;20581;-55
2021/07/05 09:24:39;;;;;;;6.43;4.00;;;;;;;;;;4401735;32;20218;-55
2021/07/05 09:27:11;;;;;;;6.07;4.05;;;;;;;;;;4403003;32;20189;-55
2021/07/05 09:29:39;;;;;;;5.90;3.83;;;;;;;;;;4402711;32;20237;-56
2021/07/05 09:32:23;;;;;;;3.90;3.30;;;;;;;;;;4402772;32;20209;-55
2021/07/05 09:34:48;;;;;;;4.97;3.90;;;;;;;;;;4402814;32;20277;-55
2021/07/05 09:37:25;;;;;;;5.03;3.95;;;;;;;;;;4402645;32;20291;-56
2021/07/05 09:40:02;;;;;;;6.37;4.87;;;;;;;;;;4402191;32;20288;-55
2021/07/05 09:42:30;;;;;;;5.60;4.57;;;;;;;;;;4402533;32;20322;-56
2021/07/05 09:44:56;;;;;;;6.03;3.72;;;;;;;;;;4402941;32;20302;-55
2021/07/05 09:47:25;;;;;;;4.20;3.50;;;;;;;;;;4402581;32;20265;-56
2021/07/05 09:49:52;;;;;;;8.45;3.75;;;;;;;;;;4402684;32;20280;-54
2021/07/05 09:52:26;;;;;;;7.70;4.05;;;;;;;;;;4402371;32;20378;-55
2021/07/05 09:54:56;;;;;;;4.45;3.17;;;;;;;;;;4402313;32;20214;-55
2021/07/05 09:57:30;;;;;;;10.10;3.87;;;;;;;;;;4402831;32;20321;-54
2021/07/05 10:00:22;;;;;;;5.60;3.50;;;;;;;;;;4402657;32;20217;-53
2021/07/05 10:03:03;;;;;;;5.57;4.05;;;;;;;;;;4402434;32;20585;-55
2021/07/05 10:05:36;;;;;;;4.90;3.65;;;;;;;;;;4402000;32;20387;-55
2021/07/05 10:08:07;;;;;;;5.12;3.72;;;;;;;;;;4402243;32;20236;-54
2021/07/05 10:10:35;;;;;;;5.65;3.60;;;;;;;;;;4402262;32;20224;-55
2021/07/05 10:13:09;;;;;;;5.47;3.87;;;;;;;;;;4402175;32;20278;-55
2021/07/05 10:15:36;;;;;;;9.27;4.45;;;;;;;;;;4400591;32;20516;-55
2021/07/05 10:18:03;;;;;;;11.90;4.05;;;;;;;;;;4389787;32;20198;-55
2021/07/05 10:20:32;;;;;;;6.05;3.05;;;;;;;;;;4389439;32;20270;-54
2021/07/05 10:23:00;;;;;;;2.92;2.45;;;;;;;;;;4389367;32;20315;-54
2021/07/05 10:25:28;;;;;;;8.13;2.60;;;;;;;;;;4389478;32;20224;-55
2021/07/05 10:27:55;;;;;;;3.70;2.30;;;;;;;;;;4389711;32;20228;-56
2021/07/05 10:30:21;;;;;;;3.30;2.83;;;;;;;;;;4389299;32;20318;-55
2021/07/05 10:32:48;;;;;;;2.50;2.08;;;;;;;;;;4404801;32;20307;-55
2021/07/05 10:35:16;;;;;;;2.10;1.60;;;;;;;;;;4404939;32;20233;-56
2021/07/05 10:38:04;;;;;;;3.08;2.17;;;;;;;;;;4403673;32;20246;-55
2021/07/05 10:40:48;;;;;;;3.75;1.95;;;;;;;;;;4404807;32;20211;-56
2021/07/05 10:43:19;;;;;;;4.95;2.30;;;;;;;;;;4404875;32;20280;-56
2021/07/05 10:45:49;;;;;;;2.20;1.87;;;;;;;;;;4403452;32;20235;-55
2021/07/05 10:48:40;;;;;;;2.08;1.60;;;;;;;;;;4404942;32;20255;-55
2021/07/05 10:51:06;;;;;;;4.32;2.03;;;;;;;;;;4401603;32;20432;-56
2021/07/05 10:53:32;;;;;;;4.57;2.08;;;;;;;;;;4404328;32;20672;-57
2021/07/05 10:55:58;;;;;;;2.95;2.20;;;;;;;;;;4405030;32;20342;-56
2021/07/05 10:58:34;;;;;;;3.25;2.03;;;;;;;;;;4404003;32;20218;-56
2021/07/05 11:01:06;;;;;;;3.00;2.25;;;;;;;;;;4404899;32;20205;-55
2021/07/05 11:03:40;;;;;;;4.62;2.70;;;;;;;;;;4403985;32;20664;-55
2021/07/05 11:06:16;;;;;;;2.50;2.08;;;;;;;;;;4404406;32;20275;-56
2021/07/05 11:08:44;;;;;;;3.58;2.42;;;;;;;;;;4404135;32;20238;-55
2021/07/05 11:11:16;;;;;;;2.53;1.95;;;;;;;;;;4404753;32;20209;-56
2021/07/05 11:13:43;;;;;;;2.10;1.70;;;;;;;;;;4403291;32;20570;-56
2021/07/05 11:16:09;;;;;;;3.67;2.12;;;;;;;;;;4403942;32;20303;-56
2021/07/05 11:18:37;;;;;;;8.05;2.67;;;;;;;;;;4402733;32;20248;-55
2021/07/05 11:21:29;;;;;;;3.20;1.98;;;;;;;;;;4404351;32;20629;-56
2021/07/05 11:26:22;;;;;;;2.40;1.90;;;;;;;;;;4404112;32;20280;-55
2021/07/05 11:28:47;;;;;;;2.37;2.05;;;;;;;;;;4404311;32;20235;-55
2021/07/05 11:31:20;;;;;;;3.60;2.33;;;;;;;;;;4403737;32;20269;-56
2021/07/05 11:33:46;;;;;;;2.53;1.92;;;;;;;;;;4403879;32;20206;-55
2021/07/05 11:36:20;;;;;;;6.30;2.42;;;;;;;;;;4403991;32;20290;-56
2021/07/05 11:39:04;;;;;;;3.53;2.00;;;;;;;;;;4403980;32;20724;-54
2021/07/05 11:41:29;;;;;;;3.25;2.35;;;;;;;;;;4403877;32;20675;-55
2021/07/05 11:44:14;;;;;;;2.30;1.85;;;;;;;;;;4404060;32;20217;-55
2021/07/05 11:46:40;;;;;;;3.92;2.35;;;;;;;;;;4403824;32;20312;-56
2021/07/05 11:49:19;;;;;;;2.75;2.40;;;;;;;;;;4402441;32;20307;-56
2021/07/05 11:51:56;;;;;;;4.03;2.10;;;;;;;;;;4403934;32;20303;-55
2021/07/05 11:54:27;;;;;;;3.53;2.35;;;;;;;;;;4403999;32;20211;-55
2021/07/05 11:56:56;;;;;;;3.58;1.58;;;;;;;;;;4403975;32;20312;-55
2021/07/05 11:59:25;;;;;;;1.87;1.48;;;;;;;;;;4403943;32;20256;-54
2021/07/05 12:01:58;;;;;;;1.75;1.40;;;;;;;;;;4404170;32;20227;-57
2021/07/05 12:04:28;;;;;;;2.20;1.90;;;;;;;;;;4402999;32;20221;-55
2021/07/05 12:06:54;;;;;;;3.12;1.95;;;;;;;;;;4402873;32;20206;-54
2021/07/05 12:09:25;;;;;;;2.00;1.80;;;;;;;;;;4403903;32;20218;-54
2021/07/05 12:11:51;;;;;;;9.20;2.15;;;;;;;;;;4404197;32;20219;-55
2021/07/05 12:14:25;;;;;;;2.33;1.73;;;;;;;;;;4403014;32;20221;-56
2021/07/05 12:16:53;;;;;;;3.15;2.40;;;;;;;;;;4392347;32;20278;-56
2021/07/05 12:19:19;;;;;;;5.22;1.90;;;;;;;;;;4387396;32;20327;-55
2021/07/05 12:21:51;;;;;;;4.70;1.80;;;;;;;;;;4388190;32;20306;-56
2021/07/05 12:24:18;;;;;;;3.60;2.20;;;;;;;;;;4388722;32;20252;-55
2021/07/05 12:26:51;;;;;;;1.95;1.48;;;;;;;;;;4388740;32;20317;-55
2021/07/05 12:29:43;;;;;;;6.78;2.20;;;;;;;;;;4388625;32;20555;-56
2021/07/05 12:32:20;;;;;;;3.03;2.10;;;;;;;;;;4400745;32;20295;-55
2021/07/05 12:35:04;;;;;;;2.58;1.92;;;;;;;;;;4403531;32;20216;-55
2021/07/05 12:37:34;;;;;;;3.92;1.80;;;;;;;;;;4402875;32;20224;-55
2021/07/05 12:40:09;;;;;;;2.75;2.22;;;;;;;;;;4403583;32;20259;-55
2021/07/05 12:42:37;;;;;;;2.37;1.90;;;;;;;;;;4403331;32;20295;-55
2021/07/05 12:45:07;;;;;;;2.62;1.70;;;;;;;;;;4403292;32;20217;-56
2021/07/05 12:47:43;;;;;;;3.90;2.00;;;;;;;;;;4401913;32;20209;-55
2021/07/05 12:50:09;;;;;;;2.83;1.83;;;;;;;;;;4403800;32;20205;-56
2021/07/05 12:52:34;;;;;;;2.28;1.83;;;;;;;;;;4403095;32;20296;-56
2021/07/05 12:55:17;;;;;;;6.07;2.25;;;;;;;;;;4403464;32;20213;-55
2021/07/05 12:57:50;;;;;;;3.50;2.10;;;;;;;;;;4403267;32;20573;-55
2021/07/05 13:00:16;;;;;;;2.28;1.65;;;;;;;;;;4403489;32;20210;-55
2021/07/05 13:02:42;;;;;;;2.58;1.70;;;;;;;;;;4403175;32;20297;-54
2021/07/05 13:05:16;;;;;;;2.47;1.80;;;;;;;;;;4403111;32;20660;-55
2021/07/05 13:07:56;;;;;;;2.80;2.30;;;;;;;;;;4403035;32;20244;-54
2021/07/05 13:10:34;;;;;;;3.58;2.00;;;;;;;;;;4401684;32;20228;-57
2021/07/05 13:13:06;;;;;;;2.92;1.83;;;;;;;;;;4393938;32;20197;-56
2021/07/05 13:15:42;;;;;;;3.15;1.60;;;;;;;;;;4398578;32;20210;-55
2021/07/05 13:18:16;;;;;;;3.40;1.95;;;;;;;;;;4386764;32;20259;-55
2021/07/05 13:20:43;;;;;;;2.75;2.33;;;;;;;;;;4402484;32;20712;-55
2021/07/05 13:23:10;;;;;;;2.87;1.77;;;;;;;;;;4402873;32;20197;-55
2021/07/05 13:25:35;;;;;;;1.48;1.35;;;;;;;;;;4402921;32;20730;-56
2021/07/05 13:28:15;;;;;;;6.45;2.85;;;;;;;;;;4395871;32;20213;-56
2021/07/05 13:30:42;;;;;;;6.00;2.20;;;;;;;;;;4390588;32;20222;-57
2021/07/05 13:33:07;;;;;;;3.78;2.22;;;;;;;;;;4402751;32;20198;-56
2021/07/05 13:35:36;;;;;;;1.25;1.10;;;;;;;;;;4402928;32;20707;-58
2021/07/05 13:38:12;;;;;;;6.50;1.58;;;;;;;;;;4402637;32;20629;-56
2021/07/05 13:40:38;;;;;;;2.55;1.48;;;;;;;;;;4402589;32;20531;-56
2021/07/05 13:43:05;;;;;;;5.10;2.65;;;;;;;;;;4402801;32;20324;-55
2021/07/05 13:45:33;;;;;;;3.40;1.80;;;;;;;;;;4400910;32;20764;-56
2021/07/05 13:48:10;;;;;;;2.28;1.80;;;;;;;;;;4401558;32;20277;-56
2021/07/05 13:50:36;;;;;;;2.47;1.77;;;;;;;;;;4406028;32;20189;-55
2021/07/05 13:53:16;;;;;;;2.58;1.75;;;;;;;;;;4405658;32;20213;-55
2021/07/05 13:55:53;;;;;;;2.90;1.77;;;;;;;;;;4405601;32;20557;-56
2021/07/05 13:58:22;;;;;;;5.12;1.77;;;;;;;;;;4405735;32;20530;-55
2021/07/05 14:00:55;;;;;;;3.67;1.92;;;;;;;;;;4404527;32;20374;-55
2021/07/05 14:03:21;;;;;;;2.95;2.05;;;;;;;;;;4405413;32;20229;-55
2021/07/05 14:05:50;;;;;;;3.22;1.90;;;;;;;;;;4405449;32;20221;-55
2021/07/05 14:08:16;;;;;;;8.18;1.95;;;;;;;;;;4405115;32;20274;-55
2021/07/05 14:10:43;;;;;;;1.87;1.73;;;;;;;;;;4405393;32;20280;-56
2021/07/05 14:13:10;;;;;;;4.53;1.85;;;;;;;;;;4405430;32;20269;-56
2021/07/05 14:15:37;;;;;;;3.80;1.92;;;;;;;;;;4393954;32;20209;-55
2021/07/05 14:18:03;;;;;;;5.60;2.47;;;;;;;;;;4403878;32;20210;-56
2021/07/05 14:20:29;;;;;;;2.28;1.77;;;;;;;;;;4405108;32;20380;-55
2021/07/05 14:22:55;;;;;;;2.85;1.80;;;;;;;;;;4403609;32;20205;-55
2021/07/05 14:25:20;;;;;;;6.05;2.97;;;;;;;;;;4403328;32;20761;-56
2021/07/05 14:27:49;;;;;;;4.35;2.55;;;;;;;;;;4404822;32;20589;-56
2021/07/05 14:30:15;;;;;;;2.55;2.00;;;;;;;;;;4394798;32;20572;-56
2021/07/05 14:32:41;;;;;;;3.72;2.40;;;;;;;;;;4404720;32;20285;-56
2021/07/05 14:35:07;;;;;;;2.40;1.55;;;;;;;;;;4405484;32;20244;-55
2021/07/05 14:37:33;;;;;;;2.22;2.03;;;;;;;;;;4404764;32;20213;-55
2021/07/05 14:39:59;;;;;;;4.75;2.10;;;;;;;;;;4405381;32;20256;-56
2021/07/05 14:42:25;;;;;;;6.40;2.05;;;;;;;;;;4404985;32;20272;-56
2021/07/05 14:44:50;;;;;;;4.00;2.28;;;;;;;;;;4405243;32;20288;-56
2021/07/05 14:47:16;;;;;;;5.40;2.30;;;;;;;;;;4405104;32;20276;-55